METAR v bližini

 

LJMB - Maribor Edvarda Rusjana, Slovenia
Oddaljenost od postaje: SV 30,9km
Podatki zajeti: 18/09/2018 21:30
Jasno
Jasno
 Veter iz smeri JV
Veter: JV 6 km/h
Temperatura: 18°C
Rosišče: 13°C
Vlažnost: 73%
Tlak: 1020 hPa
Stanje: Jasno
Vidljivost: večja od 10 km
2018/09/18 19:30 LJMB 181930Z 14003KT CAVOK 18/13 Q1020
LJLJ - Ljubljana Brnik, Slovenia
Oddaljenost od postaje: S 103km
Podatki zajeti: 18/09/2018 21:30
Rahlo oblačno
Rahlo oblačno
 Veter iz smeri spremenljiv
Veter: spremenljiv 2 km/h
Temperatura: 16°C
Rosišče: 15°C
Vlažnost: 94%
Tlak: 1020 hPa
Oblačnost: Rahlo oblačno
Vidljivost: 10 km
Podrobnosti o oblakih: Rahlo oblačno 1311 m
2018/09/18 19:30 LJLJ 181930Z VRB01KT 9999 FEW043 16/15 Q1020 NOSIG
 
LJPZ - Portorož, Slovenia
Oddaljenost od postaje: SSZ 224km
Podatki zajeti: 18/09/2018 21:30
Jasno
Jasno
 Veter iz smeri VJV
Veter: VJV 11 km/h
Temperatura: 20°C
Rosišče: 18°C
Vlažnost: 88%
Tlak: 1019 hPa
Stanje: Jasno
Vidljivost: večja od 10 km
2018/09/18 19:30 LJPZ 181930Z 12006KT CAVOK 20/18 Q1019
LJCE - Cerklje, Slovenia
Oddaljenost od postaje: VSV 83,9km
Podatki zajeti: 18/09/2018 21:30
Jasno
Jasno
 Veter iz smeri calm
Veter: Mirno
Temperatura: 18°C
Rosišče: 15°C
Vlažnost: 83%
Tlak: 1020 hPa
Stanje: Jasno
Vidljivost: večja od 10 km
2018/09/18 19:30 LJCE 181930Z 00000KT CAVOK 18/15 Q1020 RMK BLU
 
LOWG - Graz, Austria
Oddaljenost od postaje: SSZ 99,6km
Podatki zajeti: 18/09/2018 21:20
Rahlo oblačno
Rahlo oblačno
 Veter iz smeri SSZ
Veter: SSZ 6 km/h
Temperatura: 19°C
Rosišče: 14°C
Vlažnost: 73%
Tlak: 1020 hPa
Oblačnost: Rahlo oblačno
Vidljivost: 10 km
Podrobnosti o oblakih: Rahlo oblačno 1524 m
2018/09/18 19:20 LOWG 181920Z 34003KT 9999 FEW050 19/14 Q1020 NOSIG
LOWK - Klagenfurt, Austria
Oddaljenost od postaje: SZ 121km
Podatki zajeti: 18/09/2018 21:20
Delno oblačno
Delno oblačno
 Veter iz smeri spremenljiv
Veter: spremenljiv 2 km/h
Temperatura: 19°C
Rosišče: 15°C
Vlažnost: 78%
Tlak: 1020 hPa
Oblačnost: Delno oblačno
Vidljivost: 10 km
2018/09/18 19:20 LOWK 181920Z AUTO VRB01KT 9999 NSC 19/15 Q1020 NOSIG
 
LDRI - Rijeka, Croatia
Oddaljenost od postaje: SZ 243km
Podatki zajeti: 18/09/2018 21:30
Jasno
Jasno
 Veter iz smeri SZ
Veter: SZ 13 km/h
Temperatura: 21°C
Rosišče: 17°C
Vlažnost: 78%
Tlak: 1019 hPa
Stanje: Jasno
Vidljivost: večja od 10 km
2018/09/18 19:30 LDRI 181930Z 31007KT CAVOK 21/17 Q1019
LIPQ - Ronchi, Italy
Oddaljenost od postaje: VJV 224km
Podatki zajeti: 18/09/2018 21:20
Jasno
Jasno
 Veter iz smeri V
Veter: V 7 km/h
Temperatura: 22°C
Rosišče: 19°C
Vlažnost: 83%
Tlak: 1019 hPa
Stanje: Jasno
Vidljivost: večja od 10 km
2018/09/18 19:20 LIPQ 181920Z 08004KT CAVOK 22/19 Q1019
 
LDZA - Zagreb, Croatia
Oddaljenost od postaje: JJV 143km
Podatki zajeti: 18/09/2018 21:30
Jasno
Jasno
 Veter iz smeri spremenljiv
Veter: spremenljiv 2 km/h
Temperatura: 18°C
Rosišče: 12°C
Vlažnost: 68%
Tlak: 1020 hPa
Stanje: Jasno
Vidljivost: večja od 10 km
2018/09/18 19:30 LDZA 181930Z VRB01KT CAVOK 18/12 Q1020 NOSIG
LIVT - Trieste, Italy
Oddaljenost od postaje: ZSZ 250km
Podatki zajeti: 15/09/2018 16:55
Ni posodobljen
Jasno
Jasno
 Veter iz smeri ZSZ
Veter: ZSZ 2 km/h
Temperatura: 26°C
Rosišče: 20°C
Vlažnost: 70%
Tlak: 1019 hPa
Stanje: Jasno
Vidljivost: večja od 10 km
2018/09/15 14:55 LIVT 151455Z 30001KT CAVOK 26/20 Q1019 RMK SKC QUK 1 QUL 0 VIS MAR 20 KM VIS MIN 9999
 
LIPA - Aviano, Italy
Oddaljenost od postaje: S 310km
Podatki zajeti: 15/09/2018 16:55
Ni posodobljen
Jasno
Jasno
 Veter iz smeri SV
Veter: SV 7 km/h
Temperatura: 28°C
Toplotni indeks: 29°C
Rosišče: 19°C
Vlažnost: 58%
Tlak: 1019 hPa
Stanje: Jasno
Vidljivost: večja od 10 km
2018/09/15 14:55 LIPA 151455Z 05004KT CAVOK 28/19 Q1019 RMK SKC VIS MIN 9999 WIND THR05 /////KT WIND THR23 /////KT A3012 BLU
LDPL - Pula, Croatia
Oddaljenost od postaje: SSV 304km
Podatki zajeti: 18/09/2018 21:30
Jasno
Jasno
 Veter iz smeri VSV
Veter: VSV 6 km/h
Temperatura: 19°C
Rosišče: 18°C
Vlažnost: 94%
Tlak: 1019 hPa
Stanje: Jasno
Vidljivost: večja od 10 km
2018/09/18 19:30 LDPL 181930Z 06003KT CAVOK 19/18 Q1019 NOSIG